createdAt,value
2018-08-20T00:01:34.770Z,8.53
2018-08-20T00:04:07.719Z,8.87
2018-08-20T00:06:50.900Z,7.97
2018-08-20T00:09:19.827Z,9.23
2018-08-20T00:11:47.737Z,9.00
2018-08-20T00:14:16.851Z,9.27
2018-08-20T00:16:44.382Z,9.80
2018-08-20T00:19:13.181Z,8.23
2018-08-20T00:21:41.365Z,9.80
2018-08-20T00:24:08.885Z,9.70
2018-08-20T00:26:36.498Z,8.90
2018-08-20T00:29:04.649Z,8.13
2018-08-20T00:31:32.232Z,8.93
2018-08-20T00:33:59.762Z,8.97
2018-08-20T00:36:27.284Z,9.10
2018-08-20T00:38:54.801Z,8.83
2018-08-20T00:41:22.318Z,9.90
2018-08-20T00:43:49.829Z,8.87
2018-08-20T00:46:17.311Z,9.80
2018-08-20T00:48:44.846Z,9.50
2018-08-20T00:51:12.373Z,9.63
2018-08-20T00:53:39.902Z,9.53
2018-08-20T00:56:07.427Z,10.40
2018-08-20T00:58:34.965Z,9.87
2018-08-20T01:01:02.490Z,10.30
2018-08-20T01:03:29.993Z,10.00
2018-08-20T01:05:57.548Z,9.70
2018-08-20T01:08:25.061Z,10.67
2018-08-20T01:10:52.572Z,8.93
2018-08-20T01:13:20.179Z,9.57
2018-08-20T01:15:47.691Z,9.57
2018-08-20T01:18:15.291Z,9.37
2018-08-20T01:20:42.837Z,9.40
2018-08-20T01:23:10.329Z,9.77
2018-08-20T01:25:37.884Z,9.63
2018-08-20T01:28:05.454Z,10.57
2018-08-20T01:30:32.957Z,10.63
2018-08-20T01:33:09.889Z,11.17
2018-08-20T01:35:37.415Z,10.67
2018-08-20T01:38:05.241Z,10.50
2018-08-20T01:40:33.093Z,10.83
2018-08-20T01:43:00.689Z,10.47
2018-08-20T01:45:28.245Z,9.80
2018-08-20T01:47:55.765Z,10.03
2018-08-20T01:50:23.269Z,10.87
2018-08-20T01:52:50.813Z,10.87
2018-08-20T01:55:18.377Z,10.37
2018-08-20T01:57:45.879Z,11.67
2018-08-20T02:00:13.367Z,10.80
2018-08-20T02:02:40.970Z,10.70
2018-08-20T02:05:08.709Z,10.83
2018-08-20T02:07:36.413Z,10.00
2018-08-20T02:10:05.393Z,10.77
2018-08-20T02:12:32.967Z,10.10
2018-08-20T02:15:00.892Z,11.40
2018-08-20T02:17:28.399Z,9.97
2018-08-20T02:19:55.943Z,10.37
2018-08-20T02:22:23.464Z,11.10
2018-08-20T02:24:50.951Z,10.13
2018-08-20T02:27:18.439Z,10.60
2018-08-20T02:29:45.971Z,11.03
2018-08-20T02:32:13.519Z,11.73
2018-08-20T02:34:41.005Z,11.13
2018-08-20T02:37:08.598Z,11.57
2018-08-20T02:39:36.126Z,11.37
2018-08-20T02:42:03.667Z,11.57
2018-08-20T02:44:31.209Z,10.80
2018-08-20T02:46:58.862Z,11.47
2018-08-20T02:49:26.624Z,11.00
2018-08-20T02:51:54.224Z,12.87
2018-08-20T02:54:21.723Z,11.77
2018-08-20T02:56:49.266Z,11.97
2018-08-20T02:59:16.795Z,11.53
2018-08-20T03:01:44.281Z,11.70
2018-08-20T03:04:11.812Z,12.43
2018-08-20T03:06:39.417Z,11.10
2018-08-20T03:09:12.426Z,11.47
2018-08-20T03:11:39.932Z,12.00
2018-08-20T03:14:07.520Z,12.23
2018-08-20T03:16:35.799Z,13.10
2018-08-20T03:19:03.442Z,12.53
2018-08-20T03:21:30.955Z,12.10
2018-08-20T03:23:58.494Z,11.80
2018-08-20T03:26:26.363Z,12.60
2018-08-20T03:28:53.898Z,13.03
2018-08-20T03:31:21.484Z,11.90
2018-08-20T03:33:48.986Z,11.63
2018-08-20T03:36:16.646Z,13.73
2018-08-20T03:38:44.172Z,13.40
2018-08-20T03:41:11.714Z,12.40
2018-08-20T03:43:39.210Z,12.97
2018-08-20T03:46:06.754Z,12.53
2018-08-20T03:48:34.426Z,12.97
2018-08-20T03:51:01.995Z,13.30
2018-08-20T03:53:29.530Z,12.97
2018-08-20T03:55:57.070Z,12.87
2018-08-20T03:58:24.587Z,14.33
2018-08-20T04:00:52.161Z,14.27
2018-08-20T04:03:19.685Z,16.23
2018-08-20T04:05:47.220Z,15.03
2018-08-20T04:08:14.742Z,16.87
2018-08-20T04:10:42.261Z,18.03
2018-08-20T04:13:09.762Z,17.37
2018-08-20T04:15:37.282Z,16.83
2018-08-20T04:18:04.883Z,17.30
2018-08-20T04:20:32.394Z,17.30
2018-08-20T04:22:59.900Z,15.97
2018-08-20T04:25:27.407Z,18.73
2018-08-20T04:27:54.967Z,16.23
2018-08-20T04:30:22.521Z,16.37
2018-08-20T04:32:50.034Z,15.93
2018-08-20T04:35:17.512Z,15.50
2018-08-20T04:37:44.967Z,16.83
2018-08-20T04:40:12.504Z,15.73
2018-08-20T04:42:39.994Z,16.00
2018-08-20T04:45:08.015Z,16.67
2018-08-20T04:47:35.708Z,15.50
2018-08-20T04:50:04.118Z,15.93
2018-08-20T04:52:31.488Z,16.97
2018-08-20T04:54:59.025Z,15.90
2018-08-20T04:57:26.529Z,15.50
2018-08-20T04:59:54.026Z,16.17
2018-08-20T05:02:21.579Z,16.00
2018-08-20T05:04:49.094Z,16.27
2018-08-20T05:07:16.645Z,15.43
2018-08-20T05:09:44.185Z,15.27
2018-08-20T05:12:11.702Z,16.23
2018-08-20T05:14:39.222Z,15.50
2018-08-20T05:17:06.768Z,15.83
2018-08-20T05:19:34.285Z,15.73
2018-08-20T05:22:01.814Z,15.20
2018-08-20T05:24:29.403Z,16.70
2018-08-20T05:26:56.912Z,16.30
2018-08-20T05:29:24.493Z,15.00
2018-08-20T05:31:51.991Z,16.20
2018-08-20T05:34:19.500Z,16.70
2018-08-20T05:36:47.023Z,15.40
2018-08-20T05:39:14.580Z,16.50
2018-08-20T05:41:42.143Z,16.60
2018-08-20T05:44:09.662Z,16.60
2018-08-20T05:46:37.162Z,16.67
2018-08-20T05:49:04.982Z,17.30
2018-08-20T05:51:32.700Z,18.20
2018-08-20T05:54:00.340Z,17.00
2018-08-20T05:56:27.868Z,16.63
2018-08-20T05:58:55.448Z,16.07
2018-08-20T06:01:23.014Z,16.93
2018-08-20T06:03:50.559Z,18.17
2018-08-20T06:06:18.089Z,19.30
2018-08-20T06:08:45.711Z,20.97
2018-08-20T06:11:13.291Z,20.93
2018-08-20T06:13:40.849Z,18.17
2018-08-20T06:16:08.390Z,18.90
2018-08-20T06:18:35.932Z,18.00
2018-08-20T06:21:03.476Z,18.20
2018-08-20T06:23:31.090Z,17.57
2018-08-20T06:25:58.710Z,15.90
2018-08-20T06:28:26.270Z,16.03
2018-08-20T06:30:53.822Z,16.63
2018-08-20T06:33:21.388Z,17.00
2018-08-20T06:35:48.966Z,16.43
2018-08-20T06:38:16.522Z,16.40
2018-08-20T06:40:44.122Z,17.90
2018-08-20T06:43:11.659Z,17.07
2018-08-20T06:45:39.273Z,15.83
2018-08-20T06:48:06.935Z,12.57
2018-08-20T06:50:34.516Z,14.50
2018-08-20T06:53:02.138Z,16.77
2018-08-20T06:55:30.123Z,19.03
2018-08-20T06:57:57.722Z,20.83
2018-08-20T07:00:25.354Z,23.90
2018-08-20T07:02:52.921Z,25.70
2018-08-20T07:05:20.520Z,28.30
2018-08-20T07:07:48.043Z,26.00
2018-08-20T07:10:15.640Z,24.60
2018-08-20T07:12:43.298Z,22.80
2018-08-20T07:15:12.752Z,23.13
2018-08-20T07:17:40.307Z,24.00
2018-08-20T07:20:09.404Z,23.50
2018-08-20T07:22:37.122Z,15.23
2018-08-20T07:25:05.362Z,14.40
2018-08-20T07:27:33.554Z,11.37
2018-08-20T07:30:01.136Z,11.07
2018-08-20T07:32:28.713Z,10.70
2018-08-20T07:34:56.291Z,9.57
2018-08-20T07:37:23.906Z,7.70
2018-08-20T07:39:51.501Z,7.80
2018-08-20T07:42:19.207Z,7.60
2018-08-20T07:44:46.778Z,6.07
2018-08-20T07:47:14.413Z,5.70
2018-08-20T07:49:42.013Z,5.70
2018-08-20T07:52:10.370Z,6.03
2018-08-20T07:54:38.813Z,5.70
2018-08-20T07:57:07.603Z,6.63
2018-08-20T07:59:35.247Z,6.43
2018-08-20T08:02:02.931Z,6.43
2018-08-20T08:04:30.550Z,6.87
2018-08-20T08:06:58.567Z,6.70
2018-08-20T08:09:26.325Z,7.03
2018-08-20T08:11:54.085Z,5.70
2018-08-20T08:14:21.758Z,6.90
2018-08-20T08:16:49.353Z,7.07
2018-08-20T08:19:17.123Z,6.60
2018-08-20T08:21:44.747Z,7.40
2018-08-20T08:24:12.393Z,6.70
2018-08-20T08:26:40.005Z,6.20
2018-08-20T08:29:07.615Z,6.10
2018-08-20T08:31:35.282Z,7.63
2018-08-20T08:34:02.880Z,7.30
2018-08-20T08:36:30.510Z,6.80
2018-08-20T08:38:58.095Z,6.50
2018-08-20T08:41:25.660Z,5.87
2018-08-20T08:43:53.325Z,6.80
2018-08-20T08:46:20.986Z,5.87
2018-08-20T08:48:48.602Z,5.90
2018-08-20T08:51:16.198Z,5.83
2018-08-20T08:53:43.828Z,5.33
2018-08-20T08:56:11.518Z,4.73
2018-08-20T08:58:39.130Z,5.93
2018-08-20T09:01:06.863Z,5.60
2018-08-20T09:03:34.518Z,6.17
2018-08-20T09:06:03.211Z,5.80
2018-08-20T09:08:30.800Z,5.70
2018-08-20T09:10:58.651Z,5.90
2018-08-20T09:13:26.387Z,5.50
2018-08-20T09:15:54.691Z,5.87
2018-08-20T09:18:22.384Z,6.17
2018-08-20T09:20:50.012Z,6.00
2018-08-20T09:23:17.680Z,5.80
2018-08-20T09:25:45.596Z,6.03
2018-08-20T09:28:13.334Z,5.70
2018-08-20T09:30:41.010Z,5.60
2018-08-20T09:33:08.965Z,5.60
2018-08-20T09:35:36.639Z,5.80
2018-08-20T09:38:04.409Z,5.67
2018-08-20T09:40:32.139Z,5.73
2018-08-20T09:42:59.681Z,6.40
2018-08-20T09:45:27.223Z,5.07
2018-08-20T09:47:54.802Z,5.23
2018-08-20T09:50:22.405Z,6.20
2018-08-20T09:52:50.029Z,5.20
2018-08-20T09:55:17.981Z,6.03
2018-08-20T09:57:46.125Z,6.47
2018-08-20T10:00:20.601Z,4.90
2018-08-20T10:02:48.590Z,5.13
2018-08-20T10:05:17.450Z,6.23
2018-08-20T10:07:45.681Z,5.37
2018-08-20T10:10:13.383Z,5.47
2018-08-20T10:12:42.155Z,5.80
2018-08-20T10:15:10.216Z,5.13
2018-08-20T10:17:37.801Z,6.30
2018-08-20T10:20:07.589Z,5.47
2018-08-20T10:22:35.231Z,5.13
2018-08-20T10:25:03.553Z,5.03
2018-08-20T10:27:31.129Z,5.17
2018-08-20T10:29:58.802Z,5.73
2018-08-20T10:32:26.531Z,4.80
2018-08-20T10:34:54.319Z,5.27
2018-08-20T10:37:22.017Z,5.70
2018-08-20T10:39:49.752Z,5.00
2018-08-20T10:42:17.527Z,4.80
2018-08-20T10:44:50.603Z,4.80
2018-08-20T10:47:18.621Z,5.10
2018-08-20T10:49:46.321Z,5.30
2018-08-20T10:52:14.015Z,4.70
2018-08-20T10:54:41.875Z,5.20
2018-08-20T10:57:09.465Z,5.20
2018-08-20T10:59:37.869Z,4.70
2018-08-20T11:02:05.781Z,4.90
2018-08-20T11:04:33.452Z,4.50
2018-08-20T11:07:01.068Z,4.40
2018-08-20T11:09:28.714Z,4.60
2018-08-20T11:11:56.333Z,5.40
2018-08-20T11:14:23.963Z,4.80
2018-08-20T11:16:51.664Z,4.90
2018-08-20T11:19:19.221Z,5.00
2018-08-20T11:21:46.940Z,4.77
2018-08-20T11:24:14.528Z,4.17
2018-08-20T11:26:42.196Z,5.50
2018-08-20T11:29:09.780Z,5.03
2018-08-20T11:31:37.315Z,5.03
2018-08-20T11:34:04.919Z,5.10
2018-08-20T11:36:32.520Z,4.83
2018-08-20T11:39:00.103Z,4.90
2018-08-20T11:41:27.695Z,4.23
2018-08-20T11:43:55.250Z,4.70
2018-08-20T11:46:22.836Z,4.97
2018-08-20T11:48:50.453Z,5.67
2018-08-20T11:51:18.005Z,5.03
2018-08-20T11:53:45.544Z,5.20
2018-08-20T11:56:13.100Z,4.67
2018-08-20T11:58:40.676Z,4.93
2018-08-20T12:01:08.312Z,5.30
2018-08-20T12:03:35.934Z,4.53
2018-08-20T12:06:03.649Z,4.23
2018-08-20T12:08:31.271Z,4.60
2018-08-20T12:10:58.829Z,4.60
2018-08-20T12:13:26.426Z,5.13
2018-08-20T12:15:54.087Z,4.80
2018-08-20T12:18:21.716Z,4.50
2018-08-20T12:20:49.299Z,4.80
2018-08-20T12:23:16.909Z,4.80
2018-08-20T12:25:44.497Z,4.70
2018-08-20T12:28:12.201Z,4.60
2018-08-20T12:30:39.791Z,4.50
2018-08-20T12:33:07.774Z,4.67
2018-08-20T12:35:35.359Z,5.10
2018-08-20T12:38:03.041Z,4.37
2018-08-20T12:40:30.706Z,4.50
2018-08-20T12:42:58.260Z,4.80
2018-08-20T12:45:25.935Z,4.67
2018-08-20T12:47:53.591Z,4.20
2018-08-20T12:50:21.134Z,4.40
2018-08-20T12:52:48.819Z,5.10
2018-08-20T12:55:16.446Z,4.90
2018-08-20T12:57:44.169Z,4.77
2018-08-20T13:00:11.782Z,4.50
2018-08-20T13:02:39.492Z,4.93
2018-08-20T13:05:07.327Z,4.50
2018-08-20T13:07:35.391Z,5.10
2018-08-20T13:10:03.517Z,4.40
2018-08-20T13:12:31.523Z,4.93
2018-08-20T13:14:59.386Z,4.83
2018-08-20T13:17:27.197Z,5.53
2018-08-20T13:19:54.921Z,5.30
2018-08-20T13:22:23.119Z,5.00
2018-08-20T13:24:50.899Z,4.90
2018-08-20T13:27:18.517Z,4.60
2018-08-20T13:29:46.178Z,5.10
2018-08-20T13:32:13.767Z,3.87
2018-08-20T13:34:41.352Z,4.40
2018-08-20T13:37:09.140Z,4.77
2018-08-20T13:39:36.788Z,4.87
2018-08-20T13:42:04.611Z,4.63
2018-08-20T13:44:32.242Z,4.60
2018-08-20T13:46:59.825Z,4.80
2018-08-20T13:49:27.430Z,6.13
2018-08-20T13:51:55.107Z,4.77
2018-08-20T13:54:22.719Z,4.43
2018-08-20T13:56:50.353Z,4.80
2018-08-20T13:59:18.036Z,5.17
2018-08-20T14:01:45.627Z,5.47
2018-08-20T14:04:13.213Z,5.60
2018-08-20T14:06:40.820Z,4.90
2018-08-20T14:09:09.309Z,5.87
2018-08-20T14:11:37.056Z,5.13
2018-08-20T14:14:04.995Z,4.60
2018-08-20T14:16:32.714Z,4.80
2018-08-20T14:19:00.362Z,5.23
2018-08-20T14:21:28.044Z,4.33
2018-08-20T14:23:55.796Z,4.90
2018-08-20T14:26:23.494Z,4.80
2018-08-20T14:28:51.305Z,4.63
2018-08-20T14:31:18.969Z,5.13
2018-08-20T14:33:46.555Z,4.60
2018-08-20T14:36:14.237Z,5.63
2018-08-20T14:38:42.169Z,5.73
2018-08-20T14:41:10.119Z,5.60
2018-08-20T14:43:37.789Z,5.60
2018-08-20T14:46:11.265Z,5.03
2018-08-20T14:48:39.009Z,5.20
2018-08-20T14:51:07.207Z,5.20
2018-08-20T14:53:35.042Z,5.17
2018-08-20T14:56:03.061Z,5.20
2018-08-20T14:58:31.047Z,5.17
2018-08-20T15:00:58.879Z,5.10
2018-08-20T15:03:26.560Z,5.30
2018-08-20T15:05:54.271Z,5.03
2018-08-20T15:08:22.040Z,6.13
2018-08-20T15:10:49.757Z,5.93
2018-08-20T15:13:17.423Z,5.03
2018-08-20T15:15:45.298Z,5.87
2018-08-20T15:18:13.127Z,5.87
2018-08-20T15:20:40.895Z,6.07
2018-08-20T15:23:08.719Z,5.90
2018-08-20T15:25:36.520Z,6.30
2018-08-20T15:28:04.211Z,6.20
2018-08-20T15:30:31.836Z,6.87
2018-08-20T15:32:59.484Z,5.97
2018-08-20T15:35:27.111Z,6.50
2018-08-20T15:37:54.896Z,5.70
2018-08-20T15:40:22.598Z,6.50
2018-08-20T15:42:50.227Z,5.93
2018-08-20T15:45:17.850Z,6.23
2018-08-20T15:47:45.463Z,6.70
2018-08-20T15:50:13.172Z,6.10
2018-08-20T15:52:40.950Z,6.67
2018-08-20T15:55:08.650Z,5.87
2018-08-20T15:57:36.257Z,6.37
2018-08-20T16:00:04.860Z,5.20
2018-08-20T16:02:32.430Z,5.80
2018-08-20T16:05:00.053Z,6.47
2018-08-20T16:07:27.717Z,6.27
2018-08-20T16:09:55.336Z,6.37
2018-08-20T16:12:23.127Z,6.50
2018-08-20T16:14:50.756Z,5.93
2018-08-20T16:17:18.438Z,5.47
2018-08-20T16:19:46.064Z,5.73
2018-08-20T16:22:13.728Z,5.83
2018-08-20T16:24:41.364Z,5.80
2018-08-20T16:27:08.994Z,5.77
2018-08-20T16:29:36.655Z,5.07
2018-08-20T16:32:04.436Z,6.50
2018-08-20T16:34:32.042Z,5.97
2018-08-20T16:36:59.774Z,6.10
2018-08-20T16:39:27.436Z,5.90
2018-08-20T16:41:55.212Z,4.80
2018-08-20T16:44:22.889Z,5.13
2018-08-20T16:46:50.522Z,4.57
2018-08-20T16:49:18.231Z,4.97
2018-08-20T16:51:45.983Z,6.10
2018-08-20T16:54:13.601Z,5.13
2018-08-20T16:56:41.186Z,5.50
2018-08-20T16:59:08.779Z,4.90
2018-08-20T17:01:36.541Z,4.53
2018-08-20T17:04:04.426Z,4.73
2018-08-20T17:06:46.304Z,4.77
2018-08-20T17:09:13.886Z,5.57
2018-08-20T17:11:41.495Z,4.37
2018-08-20T17:14:09.157Z,5.27
2018-08-20T17:16:37.033Z,5.03
2018-08-20T17:19:05.041Z,5.10
2018-08-20T17:21:32.693Z,5.10
2018-08-20T17:24:00.570Z,4.63
2018-08-20T17:26:28.582Z,5.50
2018-08-20T17:29:00.993Z,4.63
2018-08-20T17:31:28.992Z,5.50
2018-08-20T17:33:56.865Z,5.23
2018-08-20T17:36:24.695Z,5.40
2018-08-20T17:38:52.571Z,5.67
2018-08-20T17:41:20.551Z,6.23
2018-08-20T17:43:48.423Z,5.30
2018-08-20T17:46:16.391Z,5.53
2018-08-20T17:48:44.696Z,5.50
2018-08-20T17:51:14.428Z,6.20
2018-08-20T17:53:52.774Z,5.43
2018-08-20T17:56:20.674Z,6.70
2018-08-20T17:58:56.664Z,7.07
2018-08-20T18:01:25.207Z,6.60
2018-08-20T18:03:53.419Z,6.37
2018-08-20T18:06:22.780Z,7.03
2018-08-20T18:08:50.418Z,6.60
2018-08-20T18:11:18.213Z,6.43
2018-08-20T18:13:47.100Z,6.77
2018-08-20T18:16:15.977Z,6.30
2018-08-20T18:18:46.149Z,6.37
2018-08-20T18:21:14.640Z,6.97
2018-08-20T18:23:42.588Z,6.50
2018-08-20T18:26:10.372Z,6.90
2018-08-20T18:28:44.729Z,6.90
2018-08-20T18:31:14.058Z,6.50
2018-08-20T18:33:43.043Z,7.40
2018-08-20T18:36:14.299Z,7.23
2018-08-20T18:38:54.597Z,6.13
2018-08-20T18:41:33.160Z,7.77
2018-08-20T18:44:01.561Z,7.43
2018-08-20T18:46:29.696Z,6.53
2018-08-20T18:48:57.619Z,6.70
2018-08-20T18:51:25.436Z,6.83
2018-08-20T18:53:55.660Z,7.80
2018-08-20T18:56:23.961Z,6.50
2018-08-20T18:58:51.778Z,7.37
2018-08-20T19:01:19.620Z,7.67
2018-08-20T19:03:48.345Z,7.27
2018-08-20T19:06:16.914Z,6.90
2018-08-20T19:08:44.649Z,6.40
2018-08-20T19:11:13.027Z,7.07
2018-08-20T19:13:41.765Z,6.97
2018-08-20T19:16:36.016Z,6.83
2018-08-20T19:19:04.515Z,7.20
2018-08-20T19:21:35.607Z,7.67
2018-08-20T19:24:03.437Z,6.93
2018-08-20T19:26:31.300Z,7.00
2018-08-20T19:29:07.340Z,7.50
2018-08-20T19:31:35.098Z,7.07
2018-08-20T19:34:02.918Z,7.20
2018-08-20T19:36:30.744Z,7.73
2018-08-20T19:38:58.604Z,8.23
2018-08-20T19:41:27.006Z,8.07
2018-08-20T19:43:54.995Z,7.70
2018-08-20T19:46:30.173Z,7.87
2018-08-20T19:49:04.093Z,7.90
2018-08-20T19:51:33.859Z,7.17
2018-08-20T19:54:01.883Z,8.30
2018-08-20T19:56:29.649Z,7.83
2018-08-20T19:58:57.556Z,7.10
2018-08-20T20:01:25.763Z,7.43
2018-08-20T20:03:53.840Z,8.50
2018-08-20T20:06:21.784Z,7.83
2018-08-20T20:08:49.550Z,7.37
2018-08-20T20:11:23.571Z,8.20
2018-08-20T20:13:52.493Z,8.30
2018-08-20T20:16:20.522Z,7.67
2018-08-20T20:18:48.588Z,6.70
2018-08-20T20:21:16.453Z,7.33
2018-08-20T20:23:44.235Z,7.57
2018-08-20T20:26:11.937Z,7.43
2018-08-20T20:28:39.869Z,7.47
2018-08-20T20:31:08.128Z,7.03
2018-08-20T20:33:36.011Z,6.93
2018-08-20T20:36:08.005Z,7.23
2018-08-20T20:38:35.665Z,7.77
2018-08-20T20:41:03.278Z,7.00
2018-08-20T20:43:36.834Z,8.67
2018-08-20T20:46:05.997Z,7.13
2018-08-20T20:48:33.684Z,6.27
2018-08-20T20:51:01.392Z,7.13
2018-08-20T20:53:29.987Z,7.53
2018-08-20T20:55:57.921Z,7.93
2018-08-20T20:58:31.302Z,8.07
2018-08-20T21:01:00.080Z,7.37
2018-08-20T21:03:27.998Z,7.23
2018-08-20T21:05:56.143Z,7.50
2018-08-20T21:08:37.492Z,7.70
2018-08-20T21:11:05.472Z,6.63
2018-08-20T21:13:33.227Z,7.50
2018-08-20T21:16:04.954Z,7.07
2018-08-20T21:18:33.735Z,8.00
2018-08-20T21:21:01.510Z,7.33
2018-08-20T21:23:29.884Z,7.70
2018-08-20T21:25:57.581Z,7.50
2018-08-20T21:28:56.224Z,7.83
2018-08-20T21:31:25.108Z,7.53
2018-08-20T21:33:54.718Z,7.70
2018-08-20T21:36:22.474Z,7.53
2018-08-20T21:38:50.133Z,8.07
2018-08-20T21:41:21.751Z,7.60
2018-08-20T21:43:49.721Z,7.50
2018-08-20T21:46:17.301Z,8.20
2018-08-20T21:48:45.336Z,8.30
2018-08-20T21:51:29.078Z,7.53
2018-08-20T21:53:57.027Z,7.60
2018-08-20T21:56:29.231Z,8.10
2018-08-20T21:58:56.910Z,7.97
2018-08-20T22:01:24.578Z,7.10
2018-08-20T22:03:52.495Z,8.00
2018-08-20T22:06:20.180Z,8.13
2018-08-20T22:08:47.797Z,8.70
2018-08-20T22:11:15.588Z,6.90
2018-08-20T22:13:43.223Z,8.27
2018-08-20T22:16:22.152Z,6.97
2018-08-20T22:18:54.002Z,7.57
2018-08-20T22:21:21.785Z,7.83
2018-08-20T22:23:49.442Z,7.93
2018-08-20T22:26:18.664Z,6.77
2018-08-20T22:28:48.865Z,7.70
2018-08-20T22:31:16.572Z,8.43
2018-08-20T22:33:54.693Z,6.90
2018-08-20T22:36:22.396Z,7.33
2018-08-20T22:38:51.524Z,7.70
2018-08-20T22:41:19.625Z,7.57
2018-08-20T22:43:47.517Z,6.80
2018-08-20T22:46:15.170Z,7.73
2018-08-20T22:48:42.764Z,7.47
2018-08-20T22:51:14.930Z,8.10
2018-08-20T22:53:45.969Z,7.53
2018-08-20T22:56:26.037Z,6.77
2018-08-20T22:59:01.203Z,8.03
2018-08-20T23:01:28.915Z,7.57
2018-08-20T23:03:56.601Z,7.50
2018-08-20T23:06:24.552Z,7.20
2018-08-20T23:08:52.284Z,7.40
2018-08-20T23:11:37.127Z,7.77
2018-08-20T23:14:05.849Z,8.00
2018-08-20T23:16:33.463Z,7.90
2018-08-20T23:19:01.046Z,8.13
2018-08-20T23:21:33.286Z,7.47
2018-08-20T23:24:00.865Z,8.10
2018-08-20T23:26:28.442Z,7.97
2018-08-20T23:28:56.031Z,8.50
2018-08-20T23:31:23.590Z,7.87
2018-08-20T23:33:51.185Z,7.83
2018-08-20T23:36:18.837Z,8.23
2018-08-20T23:38:46.428Z,8.30
2018-08-20T23:41:14.044Z,8.57
2018-08-20T23:43:46.207Z,8.37
2018-08-20T23:46:25.940Z,8.80
2018-08-20T23:48:53.731Z,8.57
2018-08-20T23:51:21.311Z,7.93
2018-08-20T23:53:48.864Z,9.30
2018-08-20T23:56:16.468Z,9.30
2018-08-20T23:58:43.976Z,8.07
